Oglasa — ITMG — position and weather

sailwx.info

Track history (hours):
 
Tides and Currents Weather Stations Pressure Air Temp Water Temp Dewpoint Dewpoint Depression Visibility Wind Speed Wind Dir Waves Ship Positions

Oglasa

Last reported at 2016-Jun-29 03:32 UTC. Time now 2016-Jun-29 03:55 UTC.
Position N 42°56' E 010°33'.

Length 91 m; draft 3.8 m.

Type: Ship. MMSI: 247046800.

Date/timePositionNaut miles runAvg speedWind from/ knotsBaromVisibWave heightAir tempDewpointWater temp
2016-Jun-29 03:32N 42°56' E 010°33'0 0.0
2016-Jun-29 00:31N 42°56' E 010°33'0 0.0
2016-Jun-28 16:04N 42°56' E 010°33'510.4
2016-Jun-28 15:33N 42°53' E 010°27'7 6.7
2016-Jun-28 14:32N 42°49' E 010°19'7 3.7
2016-Jun-28 12:34N 42°53' E 010°27'7 6.9
2016-Jun-28 11:31N 42°49' E 010°19'7 3.4
2016-Jun-28 09:34N 42°53' E 010°26'7 6.4
2016-Jun-28 08:31N 42°49' E 010°19'3 0.7
2016-Jun-28 04:16N 42°51' E 010°22'1 0.1
2016-Jun-27 17:15N 42°50' E 010°21'2 3.1
2016-Jun-27 16:33N 42°49' E 010°20'7 3.5
2016-Jun-27 14:33N 42°53' E 010°27'4 3.2
2016-Jun-27 13:15N 42°51' E 010°22'4 2.1
2016-Jun-27 11:33N 42°53' E 010°26'5 4.6
2016-Jun-27 10:28N 42°49' E 010°21'6 0.3
2016-Jun-26 17:34N 42°53' E 010°27'7 6.3
2016-Jun-26 16:26N 42°49' E 010°19'7 3.8
2016-Jun-26 14:33N 42°53' E 010°27'7 6.8
2016-Jun-26 13:31N 42°49' E 010°19'7 3.5
2016-Jun-26 11:33N 42°53' E 010°27'7 6.5
2016-Jun-26 10:29N 42°49' E 010°19'6 3.3
2016-Jun-26 08:34N 42°53' E 010°26'6 6.1
2016-Jun-26 07:30N 42°49' E 010°20'7 3.6
2016-Jun-26 05:34N 42°53' E 010°27'1 0.1
2016-Jun-25 17:30N 42°53' E 010°26'6 6.5
2016-Jun-25 16:33N 42°49' E 010°19'7 3.6
2016-Jun-25 14:33N 42°53' E 010°27'7 6.4
2016-Jun-25 13:27N 42°49' E 010°20'7 3.5
2016-Jun-25 11:34N 42°53' E 010°27'7 6.0
2016-Jun-25 10:27N 42°49' E 010°20'12 9.2
2016-Jun-25 09:08N 42°56' E 010°33'6 9.9
2016-Jun-25 08:34N 42°53' E 010°26'6 6.4
2016-Jun-25 07:33N 42°49' E 010°20'12 8.1
2016-Jun-25 06:03N 42°56' E 010°33'510.9
2016-Jun-25 05:33N 42°53' E 010°26'7 6.6
2016-Jun-25 04:33N 42°49' E 010°19'7 0.7
2016-Jun-24 17:34N 42°53' E 010°27'7 7.0
2016-Jun-24 16:32N 42°49' E 010°19'6 3.2
2016-Jun-24 14:33N 42°53' E 010°26'6 5.9
2016-Jun-24 13:28N 42°49' E 010°19'6 3.4
2016-Jun-24 11:34N 42°53' E 010°26'6 6.4
2016-Jun-24 10:33N 42°49' E 010°20'6 3.2
2016-Jun-24 08:33N 42°53' E 010°26'6 6.2
2016-Jun-24 07:32N 42°49' E 010°19'0 0.0
2016-Jun-24 04:29N 42°49' E 010°19'7 0.5
2016-Jun-23 15:33N 42°53' E 010°26'7 6.5
2016-Jun-23 14:31N 42°49' E 010°19'6 3.2
2016-Jun-23 12:33N 42°53' E 010°26'6 6.3
2016-Jun-23 11:33N 42°49' E 010°19'12 8.3
2016-Jun-23 10:06N 42°56' E 010°33'610.5
2016-Jun-23 09:34N 42°53' E 010°26'6 6.3
2016-Jun-23 08:32N 42°49' E 010°19'7 2.3
2016-Jun-23 05:33N 42°53' E 010°26'6 5.9
2016-Jun-23 04:27N 42°49' E 010°20'6 0.5
2016-Jun-22 15:34N 42°53' E 010°26'6 6.1
2016-Jun-22 14:32N 42°49' E 010°20'7 3.3
2016-Jun-22 12:33N 42°53' E 010°26'7 6.1
2016-Jun-22 11:29N 42°49' E 010°19'6 3.1
2016-Jun-22 09:31N 42°53' E 010°25'6 5.2
2016-Jun-22 08:26N 42°49' E 010°20'6 2.0
2016-Jun-22 05:34N 42°53' E 010°26'6 6.1
2016-Jun-22 04:33N 42°49' E 010°19'12 3.9
2016-Jun-22 01:26N 42°56' E 010°33'0 0.0
2016-Jun-21 16:32N 42°56' E 010°33'5 5.4
2016-Jun-21 15:34N 42°53' E 010°27'7 6.7
2016-Jun-21 14:33N 42°49' E 010°19'12 8.4
2016-Jun-21 13:07N 42°56' E 010°33'5 9.9
2016-Jun-21 12:33N 42°53' E 010°26'7 6.5
2016-Jun-21 11:32N 42°49' E 010°19'12 8.9
2016-Jun-21 10:11N 42°56' E 010°33'6 8.8
2016-Jun-21 09:34N 42°53' E 010°26'7 6.6
2016-Jun-21 08:33N 42°49' E 010°19'12 8.5
2016-Jun-21 07:08N 42°56' E 010°33'5 3.5
2016-Jun-21 05:33N 42°53' E 010°26'7 6.4
2016-Jun-21 04:31N 42°49' E 010°19'12 1.6
2016-Jun-20 21:11N 42°56' E 010°33'0 0.0
2016-Jun-20 20:09N 42°56' E 010°33'0 0.0
2016-Jun-20 19:32N 42°56' E 010°33'6 2.8
2016-Jun-20 17:33N 42°53' E 010°26'7 6.2
2016-Jun-20 16:31N 42°49' E 010°19'12 9.9
2016-Jun-20 15:17N 42°56' E 010°33'6 7.6
2016-Jun-20 14:34N 42°53' E 010°26'7 6.5
2016-Jun-20 13:33N 42°49' E 010°19'12 8.2
2016-Jun-20 12:04N 42°56' E 010°33'510.7
2016-Jun-20 11:34N 42°53' E 010°26'7 6.6
2016-Jun-20 10:33N 42°49' E 010°19'6 3.2
2016-Jun-20 08:34N 42°53' E 010°26'6 6.4
2016-Jun-20 07:33N 42°49' E 010°19'7 3.3
2016-Jun-20 05:33N 42°53' E 010°26'7 6.4
2016-Jun-20 04:32N 42°49' E 010°19'1 0.1
2016-Jun-19 16:21N 42°49' E 010°21'1 0.5
2016-Jun-19 13:30N 42°49' E 010°19'  
Track history (hours):
 
Tides and Currents Weather Stations Pressure Air Temp Water Temp Dewpoint Dewpoint Depression Visibility Wind Speed Wind Dir Waves Ship Positions

Oglasa

Last reported at 2016-Jun-29 03:32 UTC. Time now 2016-Jun-29 03:55 UTC.
Position N 42°56' E 010°33'.

Length 91 m; draft 3.8 m.

Type: Ship. MMSI: 247046800.

Date/timePositionNaut miles runAvg speedWind from/ knotsBaromVisibWave heightAir tempDewpointWater temp
2016-Jun-29 03:32N 42°56' E 010°33'0 0.0
2016-Jun-29 00:31N 42°56' E 010°33'0 0.0
2016-Jun-28 16:04N 42°56' E 010°33'510.4
2016-Jun-28 15:33N 42°53' E 010°27'7 6.7
2016-Jun-28 14:32N 42°49' E 010°19'7 3.7
2016-Jun-28 12:34N 42°53' E 010°27'7 6.9
2016-Jun-28 11:31N 42°49' E 010°19'7 3.4
2016-Jun-28 09:34N 42°53' E 010°26'7 6.4
2016-Jun-28 08:31N 42°49' E 010°19'3 0.7
2016-Jun-28 04:16N 42°51' E 010°22'1 0.1
2016-Jun-27 17:15N 42°50' E 010°21'2 3.1
2016-Jun-27 16:33N 42°49' E 010°20'7 3.5
2016-Jun-27 14:33N 42°53' E 010°27'4 3.2
2016-Jun-27 13:15N 42°51' E 010°22'4 2.1
2016-Jun-27 11:33N 42°53' E 010°26'5 4.6
2016-Jun-27 10:28N 42°49' E 010°21'6 0.3
2016-Jun-26 17:34N 42°53' E 010°27'7 6.3
2016-Jun-26 16:26N 42°49' E 010°19'7 3.8
2016-Jun-26 14:33N 42°53' E 010°27'7 6.8
2016-Jun-26 13:31N 42°49' E 010°19'7 3.5
2016-Jun-26 11:33N 42°53' E 010°27'7 6.5
2016-Jun-26 10:29N 42°49' E 010°19'6 3.3
2016-Jun-26 08:34N 42°53' E 010°26'6 6.1
2016-Jun-26 07:30N 42°49' E 010°20'7 3.6
2016-Jun-26 05:34N 42°53' E 010°27'1 0.1
2016-Jun-25 17:30N 42°53' E 010°26'6 6.5
2016-Jun-25 16:33N 42°49' E 010°19'7 3.6
2016-Jun-25 14:33N 42°53' E 010°27'7 6.4
2016-Jun-25 13:27N 42°49' E 010°20'7 3.5
2016-Jun-25 11:34N 42°53' E 010°27'7 6.0
2016-Jun-25 10:27N 42°49' E 010°20'12 9.2
2016-Jun-25 09:08N 42°56' E 010°33'6 9.9
2016-Jun-25 08:34N 42°53' E 010°26'6 6.4
2016-Jun-25 07:33N 42°49' E 010°20'12 8.1
2016-Jun-25 06:03N 42°56' E 010°33'510.9
2016-Jun-25 05:33N 42°53' E 010°26'7 6.6
2016-Jun-25 04:33N 42°49' E 010°19'7 0.7
2016-Jun-24 17:34N 42°53' E 010°27'7 7.0
2016-Jun-24 16:32N 42°49' E 010°19'6 3.2
2016-Jun-24 14:33N 42°53' E 010°26'6 5.9
2016-Jun-24 13:28N 42°49' E 010°19'6 3.4
2016-Jun-24 11:34N 42°53' E 010°26'6 6.4
2016-Jun-24 10:33N 42°49' E 010°20'6 3.2
2016-Jun-24 08:33N 42°53' E 010°26'6 6.2
2016-Jun-24 07:32N 42°49' E 010°19'0 0.0
2016-Jun-24 04:29N 42°49' E 010°19'7 0.5
2016-Jun-23 15:33N 42°53' E 010°26'7 6.5
2016-Jun-23 14:31N 42°49' E 010°19'6 3.2
2016-Jun-23 12:33N 42°53' E 010°26'6 6.3
2016-Jun-23 11:33N 42°49' E 010°19'12 8.3
2016-Jun-23 10:06N 42°56' E 010°33'610.5
2016-Jun-23 09:34N 42°53' E 010°26'6 6.3
2016-Jun-23 08:32N 42°49' E 010°19'7 2.3
2016-Jun-23 05:33N 42°53' E 010°26'6 5.9
2016-Jun-23 04:27N 42°49' E 010°20'6 0.5
2016-Jun-22 15:34N 42°53' E 010°26'6 6.1
2016-Jun-22 14:32N 42°49' E 010°20'7 3.3
2016-Jun-22 12:33N 42°53' E 010°26'7 6.1
2016-Jun-22 11:29N 42°49' E 010°19'6 3.1
2016-Jun-22 09:31N 42°53' E 010°25'6 5.2
2016-Jun-22 08:26N 42°49' E 010°20'6 2.0
2016-Jun-22 05:34N 42°53' E 010°26'6 6.1
2016-Jun-22 04:33N 42°49' E 010°19'12 3.9
2016-Jun-22 01:26N 42°56' E 010°33'0 0.0
2016-Jun-21 16:32N 42°56' E 010°33'5 5.4
2016-Jun-21 15:34N 42°53' E 010°27'7 6.7
2016-Jun-21 14:33N 42°49' E 010°19'12 8.4
2016-Jun-21 13:07N 42°56' E 010°33'5 9.9
2016-Jun-21 12:33N 42°53' E 010°26'7 6.5
2016-Jun-21 11:32N 42°49' E 010°19'12 8.9
2016-Jun-21 10:11N 42°56' E 010°33'6 8.8
2016-Jun-21 09:34N 42°53' E 010°26'7 6.6
2016-Jun-21 08:33N 42°49' E 010°19'12 8.5
2016-Jun-21 07:08N 42°56' E 010°33'5 3.5
2016-Jun-21 05:33N 42°53' E 010°26'7 6.4
2016-Jun-21 04:31N 42°49' E 010°19'12 1.6
2016-Jun-20 21:11N 42°56' E 010°33'0 0.0
2016-Jun-20 20:09N 42°56' E 010°33'0 0.0
2016-Jun-20 19:32N 42°56' E 010°33'6 2.8
2016-Jun-20 17:33N 42°53' E 010°26'7 6.2
2016-Jun-20 16:31N 42°49' E 010°19'12 9.9
2016-Jun-20 15:17N 42°56' E 010°33'6 7.6
2016-Jun-20 14:34N 42°53' E 010°26'7 6.5
2016-Jun-20 13:33N 42°49' E 010°19'12 8.2
2016-Jun-20 12:04N 42°56' E 010°33'510.7
2016-Jun-20 11:34N 42°53' E 010°26'7 6.6
2016-Jun-20 10:33N 42°49' E 010°19'6 3.2
2016-Jun-20 08:34N 42°53' E 010°26'6 6.4
2016-Jun-20 07:33N 42°49' E 010°19'7 3.3
2016-Jun-20 05:33N 42°53' E 010°26'7 6.4
2016-Jun-20 04:32N 42°49' E 010°19'1 0.1
2016-Jun-19 16:21N 42°49' E 010°21'1 0.5
2016-Jun-19 13:30N 42°49' E 010°19'  

Dump ship's entire track history